sensor_id;sensor_type;location;lat;lon;timestamp;temperature;humidity
7876;DHT22;69649;53.712;9.680;2024-02-23T00:00:34;8.70;61.80
7876;DHT22;69649;53.712;9.680;2024-02-23T00:03:00;8.70;62.10
7876;DHT22;69649;53.712;9.680;2024-02-23T00:05:26;8.70;61.70
7876;DHT22;69649;53.712;9.680;2024-02-23T00:07:52;8.60;61.50
7876;DHT22;69649;53.712;9.680;2024-02-23T00:10:17;8.60;61.50
7876;DHT22;69649;53.712;9.680;2024-02-23T00:12:43;8.60;62.10
7876;DHT22;69649;53.712;9.680;2024-02-23T00:15:09;8.60;61.90
7876;DHT22;69649;53.712;9.680;2024-02-23T00:17:35;8.60;61.70
7876;DHT22;69649;53.712;9.680;2024-02-23T00:20:01;8.60;62.20
7876;DHT22;69649;53.712;9.680;2024-02-23T00:22:27;8.60;62.10
7876;DHT22;69649;53.712;9.680;2024-02-23T00:24:53;8.60;62.30
7876;DHT22;69649;53.712;9.680;2024-02-23T00:27:18;8.60;63.60
7876;DHT22;69649;53.712;9.680;2024-02-23T00:29:44;8.40;66.90
7876;DHT22;69649;53.712;9.680;2024-02-23T00:32:10;8.00;69.00
7876;DHT22;69649;53.712;9.680;2024-02-23T00:34:36;7.70;69.40
7876;DHT22;69649;53.712;9.680;2024-02-23T00:37:02;7.50;70.20
7876;DHT22;69649;53.712;9.680;2024-02-23T00:39:29;7.30;70.80
7876;DHT22;69649;53.712;9.680;2024-02-23T00:41:54;7.20;71.50
7876;DHT22;69649;53.712;9.680;2024-02-23T00:44:20;7.20;71.20
7876;DHT22;69649;53.712;9.680;2024-02-23T00:46:46;7.00;70.70
7876;DHT22;69649;53.712;9.680;2024-02-23T00:49:12;7.10;70.30
7876;DHT22;69649;53.712;9.680;2024-02-23T00:51:37;7.20;69.50
7876;DHT22;69649;53.712;9.680;2024-02-23T00:54:03;7.20;69.10
7876;DHT22;69649;53.712;9.680;2024-02-23T00:56:29;7.20;68.90
7876;DHT22;69649;53.712;9.680;2024-02-23T00:58:55;7.40;68.70
7876;DHT22;69649;53.712;9.680;2024-02-23T01:01:21;7.40;68.50
7876;DHT22;69649;53.712;9.680;2024-02-23T01:03:46;7.20;67.50
7876;DHT22;69649;53.712;9.680;2024-02-23T01:06:12;7.10;66.20
7876;DHT22;69649;53.712;9.680;2024-02-23T01:08:38;7.00;66.50
7876;DHT22;69649;53.712;9.680;2024-02-23T01:11:05;6.90;66.80
7876;DHT22;69649;53.712;9.680;2024-02-23T01:13:31;6.80;66.90
7876;DHT22;69649;53.712;9.680;2024-02-23T01:15:57;6.80;67.30
7876;DHT22;69649;53.712;9.680;2024-02-23T01:18:22;6.70;67.90
7876;DHT22;69649;53.712;9.680;2024-02-23T01:20:48;6.70;68.50
7876;DHT22;69649;53.712;9.680;2024-02-23T01:23:14;6.60;68.10
7876;DHT22;69649;53.712;9.680;2024-02-23T01:25:40;6.60;68.40
7876;DHT22;69649;53.712;9.680;2024-02-23T01:28:06;6.50;68.00
7876;DHT22;69649;53.712;9.680;2024-02-23T01:30:32;6.50;68.00
7876;DHT22;69649;53.712;9.680;2024-02-23T01:32:57;6.50;68.10
7876;DHT22;69649;53.712;9.680;2024-02-23T01:35:23;6.40;67.90
7876;DHT22;69649;53.712;9.680;2024-02-23T01:37:49;6.40;68.40
7876;DHT22;69649;53.712;9.680;2024-02-23T01:40:15;6.40;68.50
7876;DHT22;69649;53.712;9.680;2024-02-23T01:42:40;6.40;68.00
7876;DHT22;69649;53.712;9.680;2024-02-23T01:45:06;6.40;68.50
7876;DHT22;69649;53.712;9.680;2024-02-23T01:47:33;6.30;68.00
7876;DHT22;69649;53.712;9.680;2024-02-23T01:49:59;6.20;67.40
7876;DHT22;69649;53.712;9.680;2024-02-23T01:52:25;6.20;67.60
7876;DHT22;69649;53.712;9.680;2024-02-23T01:54:52;6.30;68.10
7876;DHT22;69649;53.712;9.680;2024-02-23T01:57:19;6.20;68.60
7876;DHT22;69649;53.712;9.680;2024-02-23T01:59:44;6.20;68.80
7876;DHT22;69649;53.712;9.680;2024-02-23T02:02:10;6.20;68.20
7876;DHT22;69649;53.712;9.680;2024-02-23T02:04:36;6.20;68.20
7876;DHT22;69649;53.712;9.680;2024-02-23T02:07:02;6.20;68.10
7876;DHT22;69649;53.712;9.680;2024-02-23T02:09:28;6.10;67.70
7876;DHT22;69649;53.712;9.680;2024-02-23T02:11:54;6.00;68.20
7876;DHT22;69649;53.712;9.680;2024-02-23T02:14:19;6.00;68.50
7876;DHT22;69649;53.712;9.680;2024-02-23T02:16:45;6.00;68.80
7876;DHT22;69649;53.712;9.680;2024-02-23T02:19:11;5.90;69.50
7876;DHT22;69649;53.712;9.680;2024-02-23T02:21:38;6.00;69.60
7876;DHT22;69649;53.712;9.680;2024-02-23T02:24:06;5.90;70.10
7876;DHT22;69649;53.712;9.680;2024-02-23T02:26:32;5.80;70.70
7876;DHT22;69649;53.712;9.680;2024-02-23T02:29:18;5.80;71.50
7876;DHT22;69649;53.712;9.680;2024-02-23T02:31:43;5.70;72.30
7876;DHT22;69649;53.712;9.680;2024-02-23T02:34:09;5.60;71.90
7876;DHT22;69649;53.712;9.680;2024-02-23T02:36:37;5.50;70.20
7876;DHT22;69649;53.712;9.680;2024-02-23T02:39:03;5.60;70.30
7876;DHT22;69649;53.712;9.680;2024-02-23T02:41:29;5.60;70.70
7876;DHT22;69649;53.712;9.680;2024-02-23T02:43:57;5.50;70.20
7876;DHT22;69649;53.712;9.680;2024-02-23T02:46:23;5.50;70.20
7876;DHT22;69649;53.712;9.680;2024-02-23T02:49:08;5.50;70.50
7876;DHT22;69649;53.712;9.680;2024-02-23T02:51:34;5.40;70.40
7876;DHT22;69649;53.712;9.680;2024-02-23T02:54:00;5.30;70.10
7876;DHT22;69649;53.712;9.680;2024-02-23T02:56:26;5.40;70.40
7876;DHT22;69649;53.712;9.680;2024-02-23T02:58:52;5.40;70.70
7876;DHT22;69649;53.712;9.680;2024-02-23T03:01:18;5.50;70.40
7876;DHT22;69649;53.712;9.680;2024-02-23T03:03:43;5.40;70.30
7876;DHT22;69649;53.712;9.680;2024-02-23T03:06:09;5.30;70.80
7876;DHT22;69649;53.712;9.680;2024-02-23T03:08:35;5.40;71.00
7876;DHT22;69649;53.712;9.680;2024-02-23T03:11:01;5.30;71.50
7876;DHT22;69649;53.712;9.680;2024-02-23T03:13:26;5.30;72.50
7876;DHT22;69649;53.712;9.680;2024-02-23T03:15:52;5.30;72.50
7876;DHT22;69649;53.712;9.680;2024-02-23T03:18:18;5.30;72.70
7876;DHT22;69649;53.712;9.680;2024-02-23T03:20:44;5.30;72.80
7876;DHT22;69649;53.712;9.680;2024-02-23T03:23:10;5.30;72.70
7876;DHT22;69649;53.712;9.680;2024-02-23T03:25:36;5.30;72.20
7876;DHT22;69649;53.712;9.680;2024-02-23T03:28:02;5.30;72.20
7876;DHT22;69649;53.712;9.680;2024-02-23T03:30:28;5.30;71.70
7876;DHT22;69649;53.712;9.680;2024-02-23T03:32:54;5.30;71.70
7876;DHT22;69649;53.712;9.680;2024-02-23T03:35:19;5.30;71.10
7876;DHT22;69649;53.712;9.680;2024-02-23T03:37:45;5.30;71.50
7876;DHT22;69649;53.712;9.680;2024-02-23T03:40:11;5.30;71.10
7876;DHT22;69649;53.712;9.680;2024-02-23T03:42:38;5.30;71.10
7876;DHT22;69649;53.712;9.680;2024-02-23T03:45:05;5.30;71.30
7876;DHT22;69649;53.712;9.680;2024-02-23T03:47:31;5.30;70.80
7876;DHT22;69649;53.712;9.680;2024-02-23T03:49:56;5.30;69.70
7876;DHT22;69649;53.712;9.680;2024-02-23T03:52:22;5.30;70.00
7876;DHT22;69649;53.712;9.680;2024-02-23T03:54:48;5.20;70.70
7876;DHT22;69649;53.712;9.680;2024-02-23T03:57:14;5.10;70.80
7876;DHT22;69649;53.712;9.680;2024-02-23T04:02:28;5.20;70.50
7876;DHT22;69649;53.712;9.680;2024-02-23T04:04:54;5.10;70.60
7876;DHT22;69649;53.712;9.680;2024-02-23T04:07:20;5.10;70.50
7876;DHT22;69649;53.712;9.680;2024-02-23T04:09:47;5.00;70.30
7876;DHT22;69649;53.712;9.680;2024-02-23T04:12:14;5.00;70.20
7876;DHT22;69649;53.712;9.680;2024-02-23T04:14:40;4.90;70.60
7876;DHT22;69649;53.712;9.680;2024-02-23T04:17:06;4.80;70.30
7876;DHT22;69649;53.712;9.680;2024-02-23T04:19:32;4.80;70.30
7876;DHT22;69649;53.712;9.680;2024-02-23T04:21:58;4.70;70.80
7876;DHT22;69649;53.712;9.680;2024-02-23T04:24:23;4.70;71.00
7876;DHT22;69649;53.712;9.680;2024-02-23T04:26:49;4.70;71.10
7876;DHT22;69649;53.712;9.680;2024-02-23T04:29:15;4.70;71.50
7876;DHT22;69649;53.712;9.680;2024-02-23T04:31:41;4.70;71.80
7876;DHT22;69649;53.712;9.680;2024-02-23T04:34:06;4.70;72.10
7876;DHT22;69649;53.712;9.680;2024-02-23T04:36:32;4.70;72.00
7876;DHT22;69649;53.712;9.680;2024-02-23T04:38:58;4.70;72.30
7876;DHT22;69649;53.712;9.680;2024-02-23T04:41:23;4.70;72.50
7876;DHT22;69649;53.712;9.680;2024-02-23T04:43:50;4.70;72.50
7876;DHT22;69649;53.712;9.680;2024-02-23T04:46:16;4.70;72.60
7876;DHT22;69649;53.712;9.680;2024-02-23T04:48:41;4.70;72.40
7876;DHT22;69649;53.712;9.680;2024-02-23T04:51:07;4.70;72.30
7876;DHT22;69649;53.712;9.680;2024-02-23T04:53:38;4.70;72.20
7876;DHT22;69649;53.712;9.680;2024-02-23T04:56:05;4.70;72.30
7876;DHT22;69649;53.712;9.680;2024-02-23T04:58:31;4.80;72.20
7876;DHT22;69649;53.712;9.680;2024-02-23T05:00:57;4.80;72.10
7876;DHT22;69649;53.712;9.680;2024-02-23T05:03:22;4.80;72.20
7876;DHT22;69649;53.712;9.680;2024-02-23T05:05:48;4.80;72.20
7876;DHT22;69649;53.712;9.680;2024-02-23T05:08:16;4.80;72.00
7876;DHT22;69649;53.712;9.680;2024-02-23T05:10:42;4.80;72.20
7876;DHT22;69649;53.712;9.680;2024-02-23T05:13:08;4.80;72.20
7876;DHT22;69649;53.712;9.680;2024-02-23T05:15:33;4.90;72.20
7876;DHT22;69649;53.712;9.680;2024-02-23T05:17:59;4.90;72.00
7876;DHT22;69649;53.712;9.680;2024-02-23T05:20:25;4.90;72.40
7876;DHT22;69649;53.712;9.680;2024-02-23T05:22:50;4.90;72.50
7876;DHT22;69649;53.712;9.680;2024-02-23T05:25:16;4.80;72.60
7876;DHT22;69649;53.712;9.680;2024-02-23T05:27:42;4.90;72.70
7876;DHT22;69649;53.712;9.680;2024-02-23T05:30:08;4.80;72.60
7876;DHT22;69649;53.712;9.680;2024-02-23T05:32:35;4.70;72.50
7876;DHT22;69649;53.712;9.680;2024-02-23T05:35:01;4.70;72.60
7876;DHT22;69649;53.712;9.680;2024-02-23T05:37:27;4.70;72.60
7876;DHT22;69649;53.712;9.680;2024-02-23T05:39:52;4.70;72.50
7876;DHT22;69649;53.712;9.680;2024-02-23T05:42:19;4.70;72.40
7876;DHT22;69649;53.712;9.680;2024-02-23T05:44:45;4.70;72.30
7876;DHT22;69649;53.712;9.680;2024-02-23T05:47:12;4.70;71.70
7876;DHT22;69649;53.712;9.680;2024-02-23T05:49:39;4.70;71.90
7876;DHT22;69649;53.712;9.680;2024-02-23T05:52:05;4.70;71.50
7876;DHT22;69649;53.712;9.680;2024-02-23T05:54:31;4.70;71.50
7876;DHT22;69649;53.712;9.680;2024-02-23T05:56:57;4.80;70.80
7876;DHT22;69649;53.712;9.680;2024-02-23T05:59:23;4.70;70.90
7876;DHT22;69649;53.712;9.680;2024-02-23T06:01:49;4.80;70.90
7876;DHT22;69649;53.712;9.680;2024-02-23T06:04:14;4.90;70.70
7876;DHT22;69649;53.712;9.680;2024-02-23T06:06:43;4.90;70.90
7876;DHT22;69649;53.712;9.680;2024-02-23T06:09:09;5.00;70.30
7876;DHT22;69649;53.712;9.680;2024-02-23T06:11:35;5.00;70.20
7876;DHT22;69649;53.712;9.680;2024-02-23T06:14:01;5.00;70.40
7876;DHT22;69649;53.712;9.680;2024-02-23T06:16:26;5.00;70.20
7876;DHT22;69649;53.712;9.680;2024-02-23T06:18:52;4.90;70.40
7876;DHT22;69649;53.712;9.680;2024-02-23T06:21:18;4.90;70.30
7876;DHT22;69649;53.712;9.680;2024-02-23T06:23:44;4.70;70.50
7876;DHT22;69649;53.712;9.680;2024-02-23T06:26:10;4.70;70.60
7876;DHT22;69649;53.712;9.680;2024-02-23T06:28:36;4.70;70.70
7876;DHT22;69649;53.712;9.680;2024-02-23T06:31:05;4.70;70.90
7876;DHT22;69649;53.712;9.680;2024-02-23T06:33:31;4.60;70.70
7876;DHT22;69649;53.712;9.680;2024-02-23T06:35:57;4.60;70.90
7876;DHT22;69649;53.712;9.680;2024-02-23T06:38:23;4.50;70.70
7876;DHT22;69649;53.712;9.680;2024-02-23T06:40:48;4.50;70.70
7876;DHT22;69649;53.712;9.680;2024-02-23T06:43:14;4.50;70.90
7876;DHT22;69649;53.712;9.680;2024-02-23T06:45:40;4.40;71.20
7876;DHT22;69649;53.712;9.680;2024-02-23T06:48:06;4.40;71.20
7876;DHT22;69649;53.712;9.680;2024-02-23T06:50:32;4.40;71.20
7876;DHT22;69649;53.712;9.680;2024-02-23T06:52:58;4.40;71.50
7876;DHT22;69649;53.712;9.680;2024-02-23T06:55:24;4.40;71.50
7876;DHT22;69649;53.712;9.680;2024-02-23T06:57:50;4.30;71.70
7876;DHT22;69649;53.712;9.680;2024-02-23T07:00:16;4.40;71.40
7876;DHT22;69649;53.712;9.680;2024-02-23T07:02:41;4.40;71.40
7876;DHT22;69649;53.712;9.680;2024-02-23T07:05:07;4.40;70.90
7876;DHT22;69649;53.712;9.680;2024-02-23T07:07:34;4.50;71.10
7876;DHT22;69649;53.712;9.680;2024-02-23T07:10:00;4.50;71.30
7876;DHT22;69649;53.712;9.680;2024-02-23T07:12:26;4.50;71.10
7876;DHT22;69649;53.712;9.680;2024-02-23T07:14:55;4.50;71.40
7876;DHT22;69649;53.712;9.680;2024-02-23T07:17:21;4.50;71.50
7876;DHT22;69649;53.712;9.680;2024-02-23T07:19:47;4.50;71.50
7876;DHT22;69649;53.712;9.680;2024-02-23T07:22:13;4.50;71.50
7876;DHT22;69649;53.712;9.680;2024-02-23T07:24:41;4.50;71.60
7876;DHT22;69649;53.712;9.680;2024-02-23T07:27:07;4.50;71.70
7876;DHT22;69649;53.712;9.680;2024-02-23T07:29:33;4.50;71.80
7876;DHT22;69649;53.712;9.680;2024-02-23T07:31:59;4.50;71.70
7876;DHT22;69649;53.712;9.680;2024-02-23T07:34:24;4.50;71.60
7876;DHT22;69649;53.712;9.680;2024-02-23T07:36:54;4.50;71.40
7876;DHT22;69649;53.712;9.680;2024-02-23T07:39:20;4.50;71.60
7876;DHT22;69649;53.712;9.680;2024-02-23T07:41:47;4.50;71.70
7876;DHT22;69649;53.712;9.680;2024-02-23T07:44:13;4.50;71.70
7876;DHT22;69649;53.712;9.680;2024-02-23T07:46:39;4.50;71.60
7876;DHT22;69649;53.712;9.680;2024-02-23T07:49:05;4.60;71.60
7876;DHT22;69649;53.712;9.680;2024-02-23T07:51:33;4.70;71.50
7876;DHT22;69649;53.712;9.680;2024-02-23T07:53:58;4.70;71.50
7876;DHT22;69649;53.712;9.680;2024-02-23T07:56:24;4.70;71.30
7876;DHT22;69649;53.712;9.680;2024-02-23T07:58:50;4.70;71.40
7876;DHT22;69649;53.712;9.680;2024-02-23T08:01:16;4.90;71.20
7876;DHT22;69649;53.712;9.680;2024-02-23T08:03:41;4.90;71.20
7876;DHT22;69649;53.712;9.680;2024-02-23T08:06:07;5.00;71.10
7876;DHT22;69649;53.712;9.680;2024-02-23T08:08:33;5.00;71.00
7876;DHT22;69649;53.712;9.680;2024-02-23T08:11:03;5.00;71.10
7876;DHT22;69649;53.712;9.680;2024-02-23T08:13:29;5.00;71.00
7876;DHT22;69649;53.712;9.680;2024-02-23T08:15:55;5.00;71.20
7876;DHT22;69649;53.712;9.680;2024-02-23T08:18:20;5.00;71.00
7876;DHT22;69649;53.712;9.680;2024-02-23T08:21:07;5.10;70.90
7876;DHT22;69649;53.712;9.680;2024-02-23T08:23:35;5.10;71.00
7876;DHT22;69649;53.712;9.680;2024-02-23T08:26:00;5.10;70.70
7876;DHT22;69649;53.712;9.680;2024-02-23T08:28:26;5.20;70.70
7876;DHT22;69649;53.712;9.680;2024-02-23T08:30:52;5.30;70.50
7876;DHT22;69649;53.712;9.680;2024-02-23T08:33:18;5.30;70.40
7876;DHT22;69649;53.712;9.680;2024-02-23T08:35:44;5.50;70.10
7876;DHT22;69649;53.712;9.680;2024-02-23T08:38:10;5.50;69.50
7876;DHT22;69649;53.712;9.680;2024-02-23T08:40:36;5.70;68.90
7876;DHT22;69649;53.712;9.680;2024-02-23T08:43:02;5.70;68.80
7876;DHT22;69649;53.712;9.680;2024-02-23T08:45:28;5.80;68.50
7876;DHT22;69649;53.712;9.680;2024-02-23T08:47:54;6.00;68.50
7876;DHT22;69649;53.712;9.680;2024-02-23T08:50:20;6.00;67.30
7876;DHT22;69649;53.712;9.680;2024-02-23T08:52:45;5.90;67.40
7876;DHT22;69649;53.712;9.680;2024-02-23T08:55:12;5.90;67.50
7876;DHT22;69649;53.712;9.680;2024-02-23T08:57:38;6.00;67.00
7876;DHT22;69649;53.712;9.680;2024-02-23T09:00:05;6.10;67.30
7876;DHT22;69649;53.712;9.680;2024-02-23T09:02:31;6.10;66.80
7876;DHT22;69649;53.712;9.680;2024-02-23T09:04:58;6.00;66.30
7876;DHT22;69649;53.712;9.680;2024-02-23T09:07:24;6.20;66.40
7876;DHT22;69649;53.712;9.680;2024-02-23T09:09:49;6.20;66.10
7876;DHT22;69649;53.712;9.680;2024-02-23T09:12:16;6.20;66.40
7876;DHT22;69649;53.712;9.680;2024-02-23T09:14:42;6.30;66.20
7876;DHT22;69649;53.712;9.680;2024-02-23T09:17:09;6.40;66.50
7876;DHT22;69649;53.712;9.680;2024-02-23T09:19:36;6.40;65.60
7876;DHT22;69649;53.712;9.680;2024-02-23T09:22:05;6.40;65.40
7876;DHT22;69649;53.712;9.680;2024-02-23T09:24:30;6.30;64.70
7876;DHT22;69649;53.712;9.680;2024-02-23T09:26:56;6.40;65.10
7876;DHT22;69649;53.712;9.680;2024-02-23T09:29:22;6.40;65.10
7876;DHT22;69649;53.712;9.680;2024-02-23T09:31:47;6.40;64.10
7876;DHT22;69649;53.712;9.680;2024-02-23T09:34:13;6.40;64.50
7876;DHT22;69649;53.712;9.680;2024-02-23T09:36:39;6.40;64.70
7876;DHT22;69649;53.712;9.680;2024-02-23T09:39:05;6.50;64.40
7876;DHT22;69649;53.712;9.680;2024-02-23T09:41:31;6.50;64.30
7876;DHT22;69649;53.712;9.680;2024-02-23T09:43:58;6.60;64.60
7876;DHT22;69649;53.712;9.680;2024-02-23T09:46:25;6.60;64.10
7876;DHT22;69649;53.712;9.680;2024-02-23T09:48:51;6.60;64.20
7876;DHT22;69649;53.712;9.680;2024-02-23T09:51:17;6.70;64.50
7876;DHT22;69649;53.712;9.680;2024-02-23T09:53:44;6.70;64.40
7876;DHT22;69649;53.712;9.680;2024-02-23T09:56:10;6.80;64.10
7876;DHT22;69649;53.712;9.680;2024-02-23T09:58:37;6.80;63.90
7876;DHT22;69649;53.712;9.680;2024-02-23T10:01:03;6.80;63.30
7876;DHT22;69649;53.712;9.680;2024-02-23T10:03:30;6.90;63.90
7876;DHT22;69649;53.712;9.680;2024-02-23T10:05:58;7.00;63.70
7876;DHT22;69649;53.712;9.680;2024-02-23T10:08:24;7.00;63.60
7876;DHT22;69649;53.712;9.680;2024-02-23T10:10:49;6.80;63.30
7876;DHT22;69649;53.712;9.680;2024-02-23T10:13:19;6.90;63.70
7876;DHT22;69649;53.712;9.680;2024-02-23T10:15:50;7.00;63.50
7876;DHT22;69649;53.712;9.680;2024-02-23T10:18:16;7.00;63.30
7876;DHT22;69649;53.712;9.680;2024-02-23T10:20:42;7.10;62.80
7876;DHT22;69649;53.712;9.680;2024-02-23T10:23:09;7.10;62.60
7876;DHT22;69649;53.712;9.680;2024-02-23T10:25:35;7.10;62.80
7876;DHT22;69649;53.712;9.680;2024-02-23T10:28:02;7.00;62.70
7876;DHT22;69649;53.712;9.680;2024-02-23T10:30:28;7.00;63.20
7876;DHT22;69649;53.712;9.680;2024-02-23T10:32:55;7.10;62.60
7876;DHT22;69649;53.712;9.680;2024-02-23T10:35:23;7.20;62.20
7876;DHT22;69649;53.712;9.680;2024-02-23T10:37:51;7.20;62.50
7876;DHT22;69649;53.712;9.680;2024-02-23T10:40:19;7.20;62.20
7876;DHT22;69649;53.712;9.680;2024-02-23T10:42:46;7.20;61.80
7876;DHT22;69649;53.712;9.680;2024-02-23T10:45:18;7.20;62.80
7876;DHT22;69649;53.712;9.680;2024-02-23T10:47:45;7.40;61.30
7876;DHT22;69649;53.712;9.680;2024-02-23T10:50:12;7.40;61.60
7876;DHT22;69649;53.712;9.680;2024-02-23T10:52:42;7.40;60.80
7876;DHT22;69649;53.712;9.680;2024-02-23T10:55:10;7.30;61.10
7876;DHT22;69649;53.712;9.680;2024-02-23T10:57:36;7.40;60.90
7876;DHT22;69649;53.712;9.680;2024-02-23T11:00:03;7.40;61.10
7876;DHT22;69649;53.712;9.680;2024-02-23T11:02:45;7.30;60.80
7876;DHT22;69649;53.712;9.680;2024-02-23T11:05:04;7.50;61.00
7876;DHT22;69649;53.712;9.680;2024-02-23T11:07:30;7.50;61.00
7876;DHT22;69649;53.712;9.680;2024-02-23T11:09:59;7.50;60.70
7876;DHT22;69649;53.712;9.680;2024-02-23T11:12:26;7.40;60.50
7876;DHT22;69649;53.712;9.680;2024-02-23T11:14:58;7.20;61.00
7876;DHT22;69649;53.712;9.680;2024-02-23T11:17:33;7.20;61.00
7876;DHT22;69649;53.712;9.680;2024-02-23T11:20:05;7.00;61.20
7876;DHT22;69649;53.712;9.680;2024-02-23T11:22:33;7.00;61.20
7876;DHT22;69649;53.712;9.680;2024-02-23T11:27:22;7.00;61.50
7876;DHT22;69649;53.712;9.680;2024-02-23T11:29:58;7.20;61.30
7876;DHT22;69649;53.712;9.680;2024-02-23T11:32:19;7.40;61.40
7876;DHT22;69649;53.712;9.680;2024-02-23T11:34:57;7.60;61.00
7876;DHT22;69649;53.712;9.680;2024-02-23T11:37:23;7.80;60.70
7876;DHT22;69649;53.712;9.680;2024-02-23T11:39:49;8.00;60.20
7876;DHT22;69649;53.712;9.680;2024-02-23T11:42:15;8.00;60.40
7876;DHT22;69649;53.712;9.680;2024-02-23T11:44:41;7.80;60.40
7876;DHT22;69649;53.712;9.680;2024-02-23T11:47:07;7.70;60.30
7876;DHT22;69649;53.712;9.680;2024-02-23T11:49:33;7.60;60.90
7876;DHT22;69649;53.712;9.680;2024-02-23T11:51:59;7.60;60.70
7876;DHT22;69649;53.712;9.680;2024-02-23T11:54:25;7.60;60.70
7876;DHT22;69649;53.712;9.680;2024-02-23T11:56:51;7.70;60.80
7876;DHT22;69649;53.712;9.680;2024-02-23T11:59:21;7.80;60.00
7876;DHT22;69649;53.712;9.680;2024-02-23T12:01:47;7.70;60.40
7876;DHT22;69649;53.712;9.680;2024-02-23T12:04:14;7.80;60.20
7876;DHT22;69649;53.712;9.680;2024-02-23T12:06:40;8.00;60.00
7876;DHT22;69649;53.712;9.680;2024-02-23T12:09:07;8.00;59.50
7876;DHT22;69649;53.712;9.680;2024-02-23T12:11:34;8.00;59.50
7876;DHT22;69649;53.712;9.680;2024-02-23T12:14:00;8.10;59.30
7876;DHT22;69649;53.712;9.680;2024-02-23T12:16:27;8.00;59.60
7876;DHT22;69649;53.712;9.680;2024-02-23T12:18:55;8.00;58.80
7876;DHT22;69649;53.712;9.680;2024-02-23T12:21:23;8.00;59.50
7876;DHT22;69649;53.712;9.680;2024-02-23T12:23:49;8.00;59.50
7876;DHT22;69649;53.712;9.680;2024-02-23T12:26:18;8.10;59.00
7876;DHT22;69649;53.712;9.680;2024-02-23T12:28:44;8.10;58.30
7876;DHT22;69649;53.712;9.680;2024-02-23T12:31:11;8.00;58.00
7876;DHT22;69649;53.712;9.680;2024-02-23T12:33:38;7.90;57.90
7876;DHT22;69649;53.712;9.680;2024-02-23T12:36:06;7.80;58.10
7876;DHT22;69649;53.712;9.680;2024-02-23T12:38:32;8.00;58.20
7876;DHT22;69649;53.712;9.680;2024-02-23T12:40:59;8.10;57.40
7876;DHT22;69649;53.712;9.680;2024-02-23T12:43:25;8.10;57.60
7876;DHT22;69649;53.712;9.680;2024-02-23T12:45:54;8.00;57.60
7876;DHT22;69649;53.712;9.680;2024-02-23T12:48:21;8.00;57.50
7876;DHT22;69649;53.712;9.680;2024-02-23T12:50:47;8.00;57.20
7876;DHT22;69649;53.712;9.680;2024-02-23T12:53:37;7.80;58.00
7876;DHT22;69649;53.712;9.680;2024-02-23T12:56:04;7.80;58.60
7876;DHT22;69649;53.712;9.680;2024-02-23T12:58:35;7.80;58.00
7876;DHT22;69649;53.712;9.680;2024-02-23T13:01:01;8.00;57.70
7876;DHT22;69649;53.712;9.680;2024-02-23T13:03:28;7.90;57.60
7876;DHT22;69649;53.712;9.680;2024-02-23T13:05:55;7.80;58.10
7876;DHT22;69649;53.712;9.680;2024-02-23T13:08:21;7.80;58.50
7876;DHT22;69649;53.712;9.680;2024-02-23T13:10:48;7.80;58.00
7876;DHT22;69649;53.712;9.680;2024-02-23T13:13:14;7.80;58.10
7876;DHT22;69649;53.712;9.680;2024-02-23T13:15:51;7.80;58.40
7876;DHT22;69649;53.712;9.680;2024-02-23T13:18:17;7.80;58.00
7876;DHT22;69649;53.712;9.680;2024-02-23T13:20:43;7.80;57.90
7876;DHT22;69649;53.712;9.680;2024-02-23T13:23:10;7.80;58.20
7876;DHT22;69649;53.712;9.680;2024-02-23T13:25:40;7.80;58.20
7876;DHT22;69649;53.712;9.680;2024-02-23T13:28:07;7.80;58.00
7876;DHT22;69649;53.712;9.680;2024-02-23T13:30:34;7.80;58.20
7876;DHT22;69649;53.712;9.680;2024-02-23T13:33:00;7.80;58.20
7876;DHT22;69649;53.712;9.680;2024-02-23T13:35:26;7.70;57.90
7876;DHT22;69649;53.712;9.680;2024-02-23T13:37:53;7.70;58.30
7876;DHT22;69649;53.712;9.680;2024-02-23T13:40:19;7.70;58.20
7876;DHT22;69649;53.712;9.680;2024-02-23T13:42:45;7.70;58.40
7876;DHT22;69649;53.712;9.680;2024-02-23T13:45:13;7.70;58.20
7876;DHT22;69649;53.712;9.680;2024-02-23T13:47:40;7.60;58.00
7876;DHT22;69649;53.712;9.680;2024-02-23T13:50:06;7.60;58.30
7876;DHT22;69649;53.712;9.680;2024-02-23T13:52:32;7.60;58.10
7876;DHT22;69649;53.712;9.680;2024-02-23T13:54:59;7.80;58.30
7876;DHT22;69649;53.712;9.680;2024-02-23T13:57:25;7.80;57.90
7876;DHT22;69649;53.712;9.680;2024-02-23T13:59:51;7.70;57.70
7876;DHT22;69649;53.712;9.680;2024-02-23T14:02:25;7.80;57.80
7876;DHT22;69649;53.712;9.680;2024-02-23T14:04:52;7.90;58.00
7876;DHT22;69649;53.712;9.680;2024-02-23T14:07:20;8.00;57.60
7876;DHT22;69649;53.712;9.680;2024-02-23T14:09:45;8.20;57.30
7876;DHT22;69649;53.712;9.680;2024-02-23T14:12:11;8.60;56.80
7876;DHT22;69649;53.712;9.680;2024-02-23T14:14:37;9.10;55.70
7876;DHT22;69649;53.712;9.680;2024-02-23T14:17:03;9.40;55.10
7876;DHT22;69649;53.712;9.680;2024-02-23T14:19:29;9.10;55.00
7876;DHT22;69649;53.712;9.680;2024-02-23T14:21:55;8.70;55.60
7876;DHT22;69649;53.712;9.680;2024-02-23T14:24:20;8.60;56.10
7876;DHT22;69649;53.712;9.680;2024-02-23T14:26:46;8.40;55.70
7876;DHT22;69649;53.712;9.680;2024-02-23T14:29:12;8.40;55.50
7876;DHT22;69649;53.712;9.680;2024-02-23T14:31:38;8.40;56.20
7876;DHT22;69649;53.712;9.680;2024-02-23T14:34:03;8.40;56.20
7876;DHT22;69649;53.712;9.680;2024-02-23T14:36:29;8.40;55.70
7876;DHT22;69649;53.712;9.680;2024-02-23T14:38:57;8.20;55.90
7876;DHT22;69649;53.712;9.680;2024-02-23T14:41:22;8.20;56.40
7876;DHT22;69649;53.712;9.680;2024-02-23T14:43:48;8.20;56.50
7876;DHT22;69649;53.712;9.680;2024-02-23T14:46:14;8.10;56.60
7876;DHT22;69649;53.712;9.680;2024-02-23T14:48:39;8.00;57.00
7876;DHT22;69649;53.712;9.680;2024-02-23T14:51:05;8.00;56.50
7876;DHT22;69649;53.712;9.680;2024-02-23T14:53:31;8.00;57.10
7876;DHT22;69649;53.712;9.680;2024-02-23T14:55:57;8.00;56.90
7876;DHT22;69649;53.712;9.680;2024-02-23T14:58:23;8.00;57.50
7876;DHT22;69649;53.712;9.680;2024-02-23T15:00:48;8.00;57.40
7876;DHT22;69649;53.712;9.680;2024-02-23T15:03:14;7.90;57.60
7876;DHT22;69649;53.712;9.680;2024-02-23T15:05:40;7.90;57.40
7876;DHT22;69649;53.712;9.680;2024-02-23T15:08:07;7.90;58.00
7876;DHT22;69649;53.712;9.680;2024-02-23T15:10:34;7.90;58.00
7876;DHT22;69649;53.712;9.680;2024-02-23T15:12:59;7.90;58.10
7876;DHT22;69649;53.712;9.680;2024-02-23T15:15:25;8.00;57.90
7876;DHT22;69649;53.712;9.680;2024-02-23T15:17:51;7.90;57.90
7876;DHT22;69649;53.712;9.680;2024-02-23T15:20:18;7.90;58.10
7876;DHT22;69649;53.712;9.680;2024-02-23T15:22:44;7.80;57.90
7876;DHT22;69649;53.712;9.680;2024-02-23T15:25:12;7.80;58.00
7876;DHT22;69649;53.712;9.680;2024-02-23T15:27:38;7.90;58.00
7876;DHT22;69649;53.712;9.680;2024-02-23T15:30:07;8.00;58.00
7876;DHT22;69649;53.712;9.680;2024-02-23T15:32:34;7.90;57.70
7876;DHT22;69649;53.712;9.680;2024-02-23T15:35:01;7.90;57.50
7876;DHT22;69649;53.712;9.680;2024-02-23T15:37:28;7.80;57.90
7876;DHT22;69649;53.712;9.680;2024-02-23T15:39:54;7.90;57.90
7876;DHT22;69649;53.712;9.680;2024-02-23T15:42:20;7.90;58.20
7876;DHT22;69649;53.712;9.680;2024-02-23T15:44:46;8.00;58.50
7876;DHT22;69649;53.712;9.680;2024-02-23T15:47:12;8.00;58.30
7876;DHT22;69649;53.712;9.680;2024-02-23T15:49:38;8.00;58.70
7876;DHT22;69649;53.712;9.680;2024-02-23T15:52:04;8.00;60.60
7876;DHT22;69649;53.712;9.680;2024-02-23T15:54:31;7.80;61.60
7876;DHT22;69649;53.712;9.680;2024-02-23T15:56:59;7.80;64.90
7876;DHT22;69649;53.712;9.680;2024-02-23T15:59:26;7.40;69.30
7876;DHT22;69649;53.712;9.680;2024-02-23T16:01:52;6.90;70.50